Time;durP1;ratioP1;P1;durP2;ratioP2;P2;SDS_P1;SDS_P2;PMS_P1;PMS_P2;Temp;Humidity;BMP_temperature;BMP_pressure;BME280_temperature;BME280_humidity;BME280_pressure;Samples;Min_cycle;Max_cycle;Signal;HPM_P1;HPM_P2
2023/04/19 00:02:24;;;;;;;19.47;11.83;;;8.80;99.90;;;;;;5037814;28;20187;-59
2023/04/19 00:04:50;;;;;;;17.20;12.13;;;8.70;99.90;;;;;;5041419;28;20266;-59
2023/04/19 00:07:17;;;;;;;18.63;11.20;;;8.70;99.90;;;;;;5041205;28;20171;-58
2023/04/19 00:09:43;;;;;;;18.20;11.17;;;8.70;99.90;;;;;;5035945;28;20196;-59
2023/04/19 00:12:08;;;;;;;18.20;11.93;;;8.70;99.90;;;;;;5034899;28;20434;-58
2023/04/19 00:14:34;;;;;;;19.20;12.47;;;8.70;99.90;;;;;;5034952;28;20172;-60
2023/04/19 00:17:00;;;;;;;23.27;12.00;;;8.70;99.90;;;;;;5040848;28;20198;-59
2023/04/19 00:19:26;;;;;;;19.50;11.53;;;8.70;99.90;;;;;;5037093;28;20244;-60
2023/04/19 00:21:51;;;;;;;18.30;11.10;;;8.70;99.90;;;;;;5036574;28;20179;-59
2023/04/19 00:24:17;;;;;;;18.27;11.80;;;8.70;99.90;;;;;;5056944;28;20430;-58
2023/04/19 00:26:43;;;;;;;19.27;11.97;;;8.70;99.90;;;;;;5040197;28;20199;-57
2023/04/19 00:29:09;;;;;;;17.83;11.60;;;8.70;99.90;;;;;;5044670;28;20211;-58
2023/04/19 00:31:35;;;;;;;19.20;11.63;;;8.70;99.90;;;;;;5038740;28;20176;-57
2023/04/19 00:34:01;;;;;;;18.10;12.03;;;8.70;99.90;;;;;;5038404;28;20460;-59
2023/04/19 00:36:27;;;;;;;19.00;12.43;;;8.70;99.90;;;;;;5043520;28;20187;-57
2023/04/19 00:38:53;;;;;;;17.27;12.00;;;8.60;99.90;;;;;;5045215;28;20441;-59
2023/04/19 00:41:18;;;;;;;18.90;12.23;;;8.70;99.90;;;;;;5034455;28;20184;-59
2023/04/19 00:43:44;;;;;;;20.07;12.20;;;8.60;99.90;;;;;;5044399;28;20201;-57
2023/04/19 00:46:10;;;;;;;16.80;11.40;;;8.60;99.90;;;;;;5036909;28;20175;-58
2023/04/19 00:48:36;;;;;;;15.83;10.67;;;8.60;99.90;;;;;;5046474;28;20663;-57
2023/04/19 00:51:02;;;;;;;17.67;11.77;;;8.60;99.90;;;;;;5041114;28;20634;-58
2023/04/19 00:53:28;;;;;;;17.57;11.83;;;8.60;99.90;;;;;;5040227;28;20179;-58
2023/04/19 00:55:56;;;;;;;19.53;11.07;;;8.60;99.90;;;;;;5045390;28;20428;-56
2023/04/19 00:58:22;;;;;;;18.10;10.80;;;8.60;99.90;;;;;;5047952;28;20191;-57
2023/04/19 01:00:48;;;;;;;17.70;12.20;;;8.60;99.90;;;;;;5037883;28;20432;-58
2023/04/19 01:03:15;;;;;;;21.27;11.67;;;8.60;99.90;;;;;;5043459;28;20455;-57
2023/04/19 01:05:41;;;;;;;18.30;11.90;;;8.60;99.90;;;;;;5027203;28;20183;-60
2023/04/19 01:08:07;;;;;;;17.40;11.80;;;8.50;99.90;;;;;;5037986;28;20957;-58
2023/04/19 01:10:33;;;;;;;18.13;11.23;;;8.50;99.90;;;;;;5044574;28;20913;-58
2023/04/19 01:12:58;;;;;;;21.30;13.17;;;8.50;99.90;;;;;;5039613;28;20432;-57
2023/04/19 01:15:24;;;;;;;20.70;12.60;;;8.50;99.90;;;;;;5052679;28;20174;-58
2023/04/19 01:17:50;;;;;;;18.97;12.00;;;8.50;99.90;;;;;;5042620;28;20201;-57
2023/04/19 01:20:16;;;;;;;18.50;11.40;;;8.50;99.90;;;;;;5037350;28;20517;-58
2023/04/19 01:22:42;;;;;;;24.20;13.00;;;8.50;99.90;;;;;;5051325;28;20485;-56
2023/04/19 01:25:08;;;;;;;19.97;11.40;;;8.50;99.90;;;;;;5047417;28;20174;-56
2023/04/19 01:27:34;;;;;;;17.60;11.80;;;8.50;99.90;;;;;;5049005;28;20244;-58
2023/04/19 01:29:59;;;;;;;17.87;12.03;;;8.50;99.90;;;;;;5045206;28;20470;-56
2023/04/19 01:32:25;;;;;;;22.00;11.80;;;8.50;99.90;;;;;;5041872;28;20178;-57
2023/04/19 01:34:51;;;;;;;19.20;12.00;;;8.50;99.90;;;;;;5044203;28;20183;-59
2023/04/19 01:37:17;;;;;;;18.47;11.67;;;8.50;99.90;;;;;;5051752;28;20458;-58
2023/04/19 01:39:43;;;;;;;19.43;12.40;;;8.50;99.90;;;;;;5046553;28;20449;-56
2023/04/19 01:42:08;;;;;;;18.77;12.33;;;8.50;99.90;;;;;;5048866;28;20186;-58
2023/04/19 01:44:34;;;;;;;21.90;12.40;;;8.50;99.90;;;;;;5046468;28;20179;-58
2023/04/19 01:46:59;;;;;;;17.43;11.77;;;8.40;99.90;;;;;;5044019;28;20182;-55
2023/04/19 01:49:25;;;;;;;17.60;10.83;;;8.50;99.90;;;;;;5036854;28;20241;-60
2023/04/19 01:51:51;;;;;;;19.10;11.60;;;8.50;99.90;;;;;;5047577;28;20167;-57
2023/04/19 01:54:16;;;;;;;18.10;12.37;;;8.40;99.90;;;;;;5048347;28;20206;-57
2023/04/19 01:56:42;;;;;;;21.40;12.17;;;8.40;99.90;;;;;;5051917;28;20175;-59
2023/04/19 01:59:07;;;;;;;18.93;11.60;;;8.50;99.90;;;;;;5045812;28;20188;-59
2023/04/19 02:01:33;;;;;;;19.87;12.07;;;8.40;99.90;;;;;;5038892;28;20189;-58
2023/04/19 02:03:59;;;;;;;19.40;11.50;;;8.40;99.90;;;;;;5049383;28;20171;-57
2023/04/19 02:06:25;;;;;;;17.97;12.00;;;8.40;99.90;;;;;;5046218;28;20179;-57
2023/04/19 02:08:51;;;;;;;18.07;11.73;;;8.40;99.90;;;;;;5045775;28;20203;-59
2023/04/19 02:11:16;;;;;;;20.07;11.53;;;8.40;99.90;;;;;;5041867;28;20428;-58
2023/04/19 02:13:42;;;;;;;17.13;11.10;;;8.40;99.90;;;;;;5044029;28;20560;-57
2023/04/19 02:16:09;;;;;;;18.23;10.00;;;8.40;99.90;;;;;;5044068;28;20188;-59
2023/04/19 02:18:37;;;;;;;16.30;10.50;;;8.40;99.90;;;;;;5068371;22;20210;-56
2023/04/19 02:21:04;;;;;;;14.50;10.10;;;8.30;99.90;;;;;;5056340;28;20853;-57
2023/04/19 02:23:30;;;;;;;16.80;10.47;;;8.30;99.90;;;;;;5061231;28;20421;-57
2023/04/19 02:25:56;;;;;;;17.90;11.10;;;8.30;99.90;;;;;;5062507;28;20420;-59
2023/04/19 02:28:21;;;;;;;23.10;11.90;;;8.30;99.90;;;;;;5043610;28;20182;-57
2023/04/19 02:30:47;;;;;;;21.20;11.20;;;8.30;99.90;;;;;;5057055;28;20177;-58
2023/04/19 02:33:13;;;;;;;19.13;11.00;;;8.30;99.90;;;;;;5055275;28;20618;-56
2023/04/19 02:35:38;;;;;;;13.87;10.00;;;8.30;99.90;;;;;;5057944;28;20244;-56
2023/04/19 02:38:04;;;;;;;14.57;9.87;;;8.20;99.90;;;;;;5059197;28;20424;-60
2023/04/19 02:40:30;;;;;;;16.37;10.23;;;8.20;99.90;;;;;;5055364;28;20199;-57
2023/04/19 02:42:55;;;;;;;14.90;10.67;;;8.20;99.90;;;;;;5051377;28;20177;-57
2023/04/19 02:45:21;;;;;;;16.67;10.77;;;8.20;99.90;;;;;;5062013;28;20189;-57
2023/04/19 02:47:47;;;;;;;17.03;10.97;;;8.20;99.90;;;;;;5053612;28;20186;-58
2023/04/19 02:50:15;;;;;;;17.20;10.50;;;8.20;99.90;;;;;;5061086;28;20468;-57
2023/04/19 02:52:41;;;;;;;17.80;11.13;;;8.20;99.90;;;;;;5063545;28;20171;-57
2023/04/19 02:55:07;;;;;;;14.13;9.50;;;8.20;99.90;;;;;;5064251;28;20794;-57
2023/04/19 02:57:32;;;;;;;12.23;9.13;;;8.20;99.90;;;;;;5056101;28;20173;-57
2023/04/19 02:59:58;;;;;;;13.40;8.37;;;8.20;99.90;;;;;;5058413;28;20445;-58
2023/04/19 03:02:24;;;;;;;20.70;9.80;;;8.30;99.90;;;;;;5059008;28;20204;-57
2023/04/19 03:04:51;;;;;;;14.40;10.10;;;8.20;99.90;;;;;;5040001;28;20185;-58
2023/04/19 03:07:17;;;;;;;16.93;9.80;;;8.30;99.90;;;;;;5062342;28;20578;-58
2023/04/19 03:09:43;;;;;;;17.93;11.57;;;8.30;99.90;;;;;;5059454;28;20583;-57
2023/04/19 03:12:08;;;;;;;18.20;10.70;;;8.20;99.90;;;;;;5052098;28;20175;-57
2023/04/19 03:14:34;;;;;;;14.90;9.80;;;8.20;99.90;;;;;;5061850;28;20178;-56
2023/04/19 03:17:00;;;;;;;18.00;11.50;;;8.20;99.90;;;;;;5065110;28;20193;-57
2023/04/19 03:19:26;;;;;;;17.90;11.37;;;8.20;99.90;;;;;;5056722;28;20245;-56
2023/04/19 03:21:51;;;;;;;24.33;10.87;;;8.20;99.90;;;;;;5057558;28;20992;-57
2023/04/19 03:24:29;;;;;;;15.50;10.00;;;8.20;99.90;;;;;;5062024;28;20186;-56
2023/04/19 03:26:56;;;;;;;17.60;10.83;;;8.20;99.90;;;;;;5063840;28;20258;-58
2023/04/19 03:29:22;;;;;;;21.87;11.00;;;8.20;99.90;;;;;;5066614;28;20479;-57
2023/04/19 03:31:47;;;;;;;20.50;11.30;;;8.20;99.90;;;;;;5063783;28;20489;-57
2023/04/19 03:34:13;;;;;;;17.50;11.90;;;8.20;99.90;;;;;;5053453;28;20179;-57
2023/04/19 03:36:39;;;;;;;15.80;10.33;;;8.20;99.90;;;;;;5059642;28;20176;-56
2023/04/19 03:39:05;;;;;;;17.07;11.07;;;8.20;99.90;;;;;;5064483;28;21915;-56
2023/04/19 03:41:31;;;;;;;15.77;10.37;;;8.30;99.90;;;;;;5059864;28;20948;-58
2023/04/19 03:43:57;;;;;;;16.33;11.03;;;8.30;99.90;;;;;;5059173;28;20432;-57
2023/04/19 03:46:23;;;;;;;15.60;11.00;;;8.20;99.90;;;;;;5060030;28;20174;-57
2023/04/19 03:48:48;;;;;;;14.57;10.17;;;8.20;99.90;;;;;;5064415;28;20205;-58
2023/04/19 03:51:15;;;;;;;19.90;11.20;;;8.20;99.90;;;;;;5040775;28;20515;-58
2023/04/19 03:53:40;;;;;;;20.03;11.57;;;8.20;99.90;;;;;;5060503;28;20186;-58
2023/04/19 03:56:06;;;;;;;16.83;11.43;;;8.20;99.90;;;;;;5059248;28;20417;-58
2023/04/19 03:58:32;;;;;;;17.73;12.10;;;8.20;99.90;;;;;;5063121;28;20202;-56
2023/04/19 04:00:58;;;;;;;18.00;11.80;;;8.20;99.90;;;;;;5058850;28;20931;-56
2023/04/19 04:03:24;;;;;;;19.80;11.67;;;8.20;99.90;;;;;;5058065;28;20261;-57
2023/04/19 04:05:50;;;;;;;22.87;12.57;;;8.20;99.90;;;;;;5061086;28;20507;-57
2023/04/19 04:08:15;;;;;;;22.40;12.43;;;8.10;99.90;;;;;;5057673;28;20289;-56
2023/04/19 04:10:41;;;;;;;20.50;13.00;;;8.10;99.90;;;;;;5059620;28;20209;-57
2023/04/19 04:13:07;;;;;;;20.70;13.33;;;8.10;99.90;;;;;;5055624;28;20178;-57
2023/04/19 04:15:32;;;;;;;19.90;13.20;;;8.10;99.90;;;;;;5053705;28;20301;-56
2023/04/19 04:17:58;;;;;;;20.80;13.30;;;8.10;99.90;;;;;;5055484;28;20175;-56
2023/04/19 04:20:23;;;;;;;17.60;11.33;;;8.10;99.90;;;;;;5055912;28;20298;-55
2023/04/19 04:22:49;;;;;;;17.83;11.23;;;8.10;99.90;;;;;;5051236;28;22016;-58
2023/04/19 04:25:15;;;;;;;23.00;13.70;;;8.10;99.90;;;;;;5057572;28;20190;-56
2023/04/19 04:27:42;;;;;;;18.20;11.60;;;8.10;99.90;;;;;;5056712;28;20174;-56
2023/04/19 04:30:09;;;;;;;18.33;11.90;;;8.10;99.90;;;;;;5059352;28;20214;-57
2023/04/19 04:32:35;;;;;;;17.50;11.00;;;8.10;99.90;;;;;;5050219;28;20436;-56
2023/04/19 04:35:05;;;;;;;16.37;11.07;;;8.10;99.90;;;;;;5036758;28;20502;-58
2023/04/19 04:37:32;;;;;;;23.83;12.60;;;8.10;99.90;;;;;;5057553;28;20171;-57
2023/04/19 04:39:59;;;;;;;24.70;12.53;;;8.10;99.90;;;;;;5053054;28;20454;-56
2023/04/19 04:42:25;;;;;;;26.03;11.57;;;8.10;99.90;;;;;;5062503;28;20497;-57
2023/04/19 04:44:51;;;;;;;20.77;12.47;;;8.10;99.90;;;;;;5057233;28;20889;-57
2023/04/19 04:47:17;;;;;;;23.47;13.00;;;8.10;99.90;;;;;;5053164;28;20256;-55
2023/04/19 04:49:42;;;;;;;18.03;12.30;;;8.10;99.90;;;;;;5058086;28;20326;-57
2023/04/19 04:52:08;;;;;;;19.47;12.37;;;8.20;99.90;;;;;;5049123;28;20182;-56
2023/04/19 04:54:34;;;;;;;20.60;12.10;;;8.10;99.90;;;;;;5042335;28;20186;-57
2023/04/19 04:57:00;;;;;;;17.67;10.33;;;8.10;99.90;;;;;;5059309;28;20253;-58
2023/04/19 04:59:26;;;;;;;21.50;12.03;;;8.10;99.90;;;;;;5060569;28;20274;-58
2023/04/19 05:01:51;;;;;;;16.47;11.47;;;8.10;99.90;;;;;;5057514;28;20424;-57
2023/04/19 05:04:18;;;;;;;22.93;11.90;;;8.10;99.90;;;;;;5062045;28;20448;-58
2023/04/19 05:06:43;;;;;;;18.80;12.90;;;8.20;99.90;;;;;;5058642;28;20201;-56
2023/04/19 05:09:10;;;;;;;14.40;10.10;;;8.10;99.90;;;;;;5058332;28;21144;-58
2023/04/19 05:11:36;;;;;;;16.47;11.03;;;8.20;99.90;;;;;;5059546;28;20178;-57
2023/04/19 05:14:02;;;;;;;17.43;10.70;;;8.10;99.90;;;;;;5062702;28;20444;-57
2023/04/19 05:16:28;;;;;;;22.73;10.90;;;8.20;99.90;;;;;;5042973;28;20715;-57
2023/04/19 05:18:54;;;;;;;18.57;11.43;;;8.20;99.90;;;;;;5054628;28;21095;-56
2023/04/19 05:21:20;;;;;;;17.60;10.93;;;8.20;99.90;;;;;;5050100;28;20437;-57
2023/04/19 05:23:45;;;;;;;16.67;10.60;;;8.20;99.90;;;;;;5054730;28;20433;-58
2023/04/19 05:26:13;;;;;;;17.17;10.97;;;8.20;99.90;;;;;;5059900;28;20433;-58
2023/04/19 05:28:39;;;;;;;17.57;11.17;;;8.10;99.90;;;;;;5064391;28;20194;-58
2023/04/19 05:31:05;;;;;;;17.57;11.07;;;8.20;99.90;;;;;;5062723;28;20440;-59
2023/04/19 05:33:31;;;;;;;18.60;11.33;;;8.20;99.90;;;;;;5064496;28;20932;-58
2023/04/19 05:35:57;;;;;;;17.77;11.37;;;8.10;99.90;;;;;;5046606;28;20163;-59
2023/04/19 05:38:22;;;;;;;15.33;10.70;;;8.20;99.90;;;;;;5066739;28;20519;-58
2023/04/19 05:40:48;;;;;;;16.40;11.30;;;8.20;99.90;;;;;;5058686;28;20216;-59
2023/04/19 05:43:13;;;;;;;19.60;11.90;;;8.20;99.90;;;;;;5039626;28;20179;-58
2023/04/19 05:45:39;;;;;;;19.10;11.40;;;8.20;99.90;;;;;;5062733;28;20262;-57
2023/04/19 05:48:05;;;;;;;17.80;11.53;;;8.20;99.90;;;;;;5063049;28;20255;-58
2023/04/19 05:50:31;;;;;;;17.10;11.73;;;8.20;99.90;;;;;;5041362;28;20203;-58
2023/04/19 05:52:57;;;;;;;15.10;9.93;;;8.20;99.90;;;;;;5065619;28;20427;-58
2023/04/19 05:55:22;;;;;;;21.13;11.00;;;8.20;99.90;;;;;;5067484;28;20297;-58
2023/04/19 05:57:49;;;;;;;15.77;10.03;;;8.20;99.90;;;;;;5065398;28;20201;-58
2023/04/19 06:00:15;;;;;;;20.00;11.90;;;8.20;99.90;;;;;;5065770;28;20721;-58
2023/04/19 06:02:42;;;;;;;20.83;11.70;;;8.20;99.90;;;;;;5046675;28;20434;-58
2023/04/19 06:05:08;;;;;;;21.60;11.90;;;8.20;99.90;;;;;;5062021;28;20432;-58
2023/04/19 06:07:33;;;;;;;22.33;10.50;;;8.20;99.90;;;;;;5062738;28;20439;-58
2023/04/19 06:09:59;;;;;;;19.50;10.80;;;8.20;99.90;;;;;;5057503;28;20200;-57
2023/04/19 06:12:25;;;;;;;19.53;12.10;;;8.30;99.90;;;;;;5060649;28;20182;-58
2023/04/19 06:14:51;;;;;;;20.63;13.17;;;8.30;99.90;;;;;;5049683;28;20576;-59
2023/04/19 06:17:22;;;;;;;19.87;12.00;;;8.30;99.90;;;;;;5058427;28;20171;-57
2023/04/19 06:19:48;;;;;;;18.60;12.70;;;8.30;99.90;;;;;;5035278;28;20497;-58
2023/04/19 06:22:13;;;;;;;17.90;12.07;;;8.30;99.90;;;;;;5064034;28;21336;-58
2023/04/19 06:24:39;;;;;;;18.90;12.47;;;8.30;99.90;;;;;;5066293;28;20678;-58
2023/04/19 06:27:04;;;;;;;18.90;12.50;;;8.30;99.90;;;;;;5067665;28;20182;-58
2023/04/19 06:29:30;;;;;;;29.03;14.00;;;8.40;99.90;;;;;;5065631;28;20214;-59
2023/04/19 06:31:56;;;;;;;26.27;13.43;;;8.40;99.90;;;;;;5058313;28;20203;-57
2023/04/19 06:34:21;;;;;;;20.77;13.90;;;8.40;99.90;;;;;;5065422;28;20191;-58
2023/04/19 06:36:47;;;;;;;23.20;13.03;;;8.40;99.90;;;;;;5059589;28;20182;-58
2023/04/19 06:39:14;;;;;;;22.00;13.47;;;8.40;99.90;;;;;;5055966;28;20197;-59
2023/04/19 06:41:39;;;;;;;28.60;13.70;;;8.40;99.90;;;;;;5059808;28;20185;-58
2023/04/19 06:44:05;;;;;;;24.40;14.83;;;8.40;99.90;;;;;;5064766;28;20497;-58
2023/04/19 06:46:30;;;;;;;20.43;13.10;;;8.40;99.90;;;;;;5060669;28;20214;-57
2023/04/19 06:48:56;;;;;;;21.20;13.50;;;8.40;99.90;;;;;;5063999;28;20281;-58
2023/04/19 06:51:22;;;;;;;24.90;15.37;;;8.40;99.90;;;;;;5058250;28;20546;-56
2023/04/19 06:53:49;;;;;;;22.43;14.03;;;8.50;99.90;;;;;;5060005;28;20174;-57
2023/04/19 06:56:15;;;;;;;26.10;15.37;;;8.50;99.90;;;;;;5057121;28;20175;-58
2023/04/19 06:58:40;;;;;;;27.13;13.97;;;8.50;99.90;;;;;;5062827;28;20987;-57
2023/04/19 07:01:06;;;;;;;22.80;15.20;;;8.50;99.90;;;;;;5056585;28;20258;-58
2023/04/19 07:03:31;;;;;;;23.87;15.33;;;8.50;99.90;;;;;;5063731;28;20189;-58
2023/04/19 07:05:57;;;;;;;26.63;16.30;;;8.50;99.90;;;;;;5063146;28;20189;-58
2023/04/19 07:08:24;;;;;;;24.43;15.23;;;8.50;99.90;;;;;;5066410;28;20179;-57
2023/04/19 07:10:49;;;;;;;26.60;16.17;;;8.60;99.90;;;;;;5064100;28;20203;-57
2023/04/19 07:13:15;;;;;;;29.03;16.10;;;8.60;99.90;;;;;;5062148;28;20436;-58
2023/04/19 07:15:41;;;;;;;28.67;15.07;;;8.60;99.90;;;;;;5062246;28;20201;-57
2023/04/19 07:18:09;;;;;;;27.67;15.27;;;8.60;99.90;;;;;;5061460;28;20690;-59
2023/04/19 07:20:34;;;;;;;25.33;16.00;;;8.70;99.90;;;;;;5043488;28;20187;-57
2023/04/19 07:23:00;;;;;;;25.33;15.77;;;8.70;99.90;;;;;;5063624;28;20429;-58
2023/04/19 07:25:26;;;;;;;25.80;14.67;;;8.80;99.90;;;;;;5060857;28;20198;-58
2023/04/19 07:27:53;;;;;;;21.73;12.97;;;8.80;99.90;;;;;;5059417;28;21857;-58
2023/04/19 07:30:19;;;;;;;26.53;14.43;;;8.90;99.90;;;;;;5059806;28;20494;-57
2023/04/19 07:32:45;;;;;;;22.70;13.40;;;8.90;99.90;;;;;;5056594;28;20436;-57
2023/04/19 07:35:11;;;;;;;21.97;14.60;;;9.00;99.90;;;;;;5055273;28;20179;-60
2023/04/19 07:37:36;;;;;;;23.03;13.53;;;9.00;99.90;;;;;;5058770;28;20179;-58
2023/04/19 07:40:03;;;;;;;21.27;12.90;;;9.10;99.90;;;;;;5059162;28;20277;-58
2023/04/19 07:42:29;;;;;;;26.50;15.37;;;9.10;99.90;;;;;;5061034;28;20183;-56
2023/04/19 07:44:55;;;;;;;25.83;15.07;;;9.10;99.90;;;;;;5061258;28;20451;-58
2023/04/19 07:47:21;;;;;;;23.23;14.43;;;9.20;99.90;;;;;;5060259;28;20179;-57
2023/04/19 07:49:51;;;;;;;21.87;14.77;;;9.10;99.90;;;;;;5059075;28;20984;-58
2023/04/19 07:52:17;;;;;;;21.87;13.53;;;9.10;99.70;;;;;;5057783;28;20660;-57
2023/04/19 07:54:43;;;;;;;23.77;14.17;;;9.10;99.90;;;;;;5061771;28;20445;-57
2023/04/19 07:57:08;;;;;;;23.70;13.80;;;9.10;99.90;;;;;;5041781;28;20460;-58
2023/04/19 07:59:34;;;;;;;20.47;13.43;;;9.00;99.90;;;;;;5063478;28;20588;-58
2023/04/19 08:02:00;;;;;;;26.93;14.33;;;9.00;99.90;;;;;;5058783;28;20185;-58
2023/04/19 08:04:25;;;;;;;21.10;13.43;;;9.00;99.90;;;;;;5055526;28;20185;-58
2023/04/19 08:06:51;;;;;;;24.20;13.90;;;9.00;99.90;;;;;;5061122;28;20182;-58
2023/04/19 08:09:17;;;;;;;26.10;14.83;;;9.00;99.90;;;;;;5064271;28;20690;-57
2023/04/19 08:11:43;;;;;;;26.77;14.20;;;9.00;99.90;;;;;;5060327;28;20439;-57
2023/04/19 08:14:09;;;;;;;21.60;13.97;;;9.00;99.90;;;;;;5060880;28;20417;-57
2023/04/19 08:16:35;;;;;;;26.10;15.23;;;9.00;99.90;;;;;;5061455;28;20179;-59
2023/04/19 08:19:00;;;;;;;24.90;13.97;;;9.10;99.90;;;;;;5060318;28;20218;-58
2023/04/19 08:21:26;;;;;;;25.03;15.17;;;9.20;99.90;;;;;;5054883;28;20632;-57
2023/04/19 08:23:52;;;;;;;27.40;15.90;;;9.30;99.90;;;;;;5059552;28;20301;-56
2023/04/19 08:26:17;;;;;;;24.60;14.20;;;9.30;99.90;;;;;;5058639;28;20190;-57
2023/04/19 08:28:43;;;;;;;26.53;14.73;;;9.40;99.90;;;;;;5055949;28;20453;-58
2023/04/19 08:31:09;;;;;;;28.90;15.47;;;9.50;99.90;;;;;;5065391;23;20626;-63
2023/04/19 08:33:35;;;;;;;23.73;15.23;;;9.60;99.90;;;;;;5062397;28;20170;-59
2023/04/19 08:36:00;;;;;;;23.57;14.70;;;9.70;99.90;;;;;;5051150;28;20270;-59
2023/04/19 08:38:26;;;;;;;21.70;13.87;;;9.80;99.90;;;;;;5053839;28;20269;-60
2023/04/19 08:40:53;;;;;;;23.83;14.47;;;9.80;99.20;;;;;;5055817;28;20428;-59
2023/04/19 08:43:20;;;;;;;25.60;14.83;;;9.90;98.60;;;;;;5039228;28;20189;-60
2023/04/19 08:45:47;;;;;;;30.33;15.93;;;9.90;97.80;;;;;;5041699;28;20433;-60
2023/04/19 08:48:14;;;;;;;26.00;15.20;;;9.90;97.90;;;;;;5037043;28;20455;-60
2023/04/19 08:50:47;;;;;;;26.47;14.60;;;9.90;96.90;;;;;;5039566;28;20472;-60
2023/04/19 08:53:15;;;;;;;25.07;13.97;;;10.00;96.30;;;;;;5047300;28;20888;-59
2023/04/19 08:55:45;;;;;;;23.13;15.10;;;10.00;94.50;;;;;;5037187;28;20473;-60
2023/04/19 08:58:10;;;;;;;24.00;15.77;;;10.00;93.80;;;;;;5043652;28;20517;-61
2023/04/19 09:00:40;;;;;;;30.40;16.63;;;10.00;93.30;;;;;;5040029;28;20548;-61
2023/04/19 09:03:07;;;;;;;24.47;13.90;;;10.00;92.40;;;;;;5040751;28;20172;-60
2023/04/19 09:05:33;;;;;;;25.57;15.00;;;9.90;92.70;;;;;;5047967;28;20417;-60
2023/04/19 09:08:21;;;;;;;26.70;15.67;;;9.80;93.10;;;;;;5047469;28;20437;-60
2023/04/19 09:10:55;;;;;;;28.50;16.50;;;9.70;94.00;;;;;;5038665;28;20210;-60
2023/04/19 09:13:21;;;;;;;22.27;14.30;;;9.70;95.20;;;;;;5039686;28;20421;-61
2023/04/19 09:15:47;;;;;;;23.17;15.23;;;9.70;95.50;;;;;;5036606;28;20422;-56
2023/04/19 09:18:13;;;;;;;27.40;16.43;;;9.70;95.40;;;;;;5033431;28;20480;-57
2023/04/19 09:20:43;;;;;;;34.03;16.20;;;9.70;95.60;;;;;;5037226;28;20230;-59
2023/04/19 09:23:12;;;;;;;27.57;16.00;;;9.80;96.40;;;;;;5042861;28;20430;-60
2023/04/19 09:25:38;;;;;;;25.63;16.30;;;9.80;96.00;;;;;;5042354;28;20429;-60
2023/04/19 09:28:11;;;;;;;24.37;14.87;;;9.80;96.00;;;;;;5044158;28;20441;-60
2023/04/19 09:30:37;;;;;;;24.97;15.57;;;9.90;96.90;;;;;;5036173;28;22509;-60
2023/04/19 09:33:03;;;;;;;28.43;16.80;;;9.90;96.10;;;;;;5037745;28;21082;-61
2023/04/19 09:35:43;;;;;;;31.87;16.87;;;10.00;96.00;;;;;;5018471;28;20438;-59
2023/04/19 09:38:10;;;;;;;28.67;16.33;;;10.00;95.10;;;;;;5037285;28;20258;-60
2023/04/19 09:40:36;;;;;;;30.70;15.57;;;10.00;95.10;;;;;;5026694;28;21419;-62
2023/04/19 09:43:02;;;;;;;29.17;17.63;;;10.10;95.00;;;;;;5032430;28;20445;-61
2023/04/19 09:45:42;;;;;;;28.63;16.33;;;10.10;94.60;;;;;;5035281;28;20512;-61
2023/04/19 09:48:08;;;;;;;27.50;15.00;;;10.20;93.90;;;;;;5032170;28;20433;-57
2023/04/19 09:50:35;;;;;;;29.33;16.60;;;10.20;91.40;;;;;;5028931;28;20531;-62
2023/04/19 09:53:02;;;;;;;29.53;16.37;;;10.20;91.00;;;;;;5026283;28;20430;-60
2023/04/19 09:55:27;;;;;;;25.47;15.13;;;10.20;92.10;;;;;;5042991;28;20424;-60
2023/04/19 09:57:53;;;;;;;26.90;16.93;;;10.20;90.90;;;;;;5021706;28;20777;-60
2023/04/19 10:00:20;;;;;;;23.73;15.00;;;10.20;90.90;;;;;;5035256;28;20189;-61
2023/04/19 10:02:54;;;;;;;25.93;14.20;;;10.30;90.90;;;;;;5042843;28;20218;-60
2023/04/19 10:05:21;;;;;;;28.50;14.43;;;10.20;90.30;;;;;;5038158;28;20441;-60
2023/04/19 10:07:51;;;;;;;24.60;15.30;;;10.20;90.60;;;;;;5037076;28;20483;-61
2023/04/19 10:10:17;;;;;;;28.00;14.90;;;10.10;92.00;;;;;;5042774;28;20456;-61
2023/04/19 10:12:50;;;;;;;23.13;14.70;;;10.20;93.00;;;;;;5050070;28;21084;-61
2023/04/19 10:15:16;;;;;;;21.40;14.17;;;10.30;92.10;;;;;;5046017;28;20508;-60
2023/04/19 10:17:42;;;;;;;22.70;13.33;;;10.40;92.60;;;;;;5047447;28;20426;-60
2023/04/19 10:20:19;;;;;;;19.63;13.27;;;10.50;91.30;;;;;;5046162;28;20808;-54
2023/04/19 10:22:45;;;;;;;21.97;13.47;;;10.50;89.70;;;;;;5042980;28;20508;-54
2023/04/19 10:25:15;;;;;;;29.17;15.23;;;10.50;88.10;;;;;;5022174;28;20906;-60
2023/04/19 10:27:45;;;;;;;23.23;14.30;;;10.40;87.00;;;;;;5041045;28;20210;-60
2023/04/19 10:30:22;;;;;;;22.07;13.80;;;10.30;86.60;;;;;;5031675;28;20454;-60
2023/04/19 10:32:55;;;;;;;22.93;12.43;;;10.20;87.10;;;;;;5024410;28;20461;-59
2023/04/19 10:35:36;;;;;;;24.37;14.50;;;10.10;87.90;;;;;;5040230;28;20434;-60
2023/04/19 10:38:07;;;;;;;19.67;12.60;;;10.00;88.80;;;;;;5044592;28;20429;-62
2023/04/19 10:40:51;;;;;;;17.10;11.67;;;9.90;90.50;;;;;;5010837;28;20469;-61
2023/04/19 10:43:18;;;;;;;20.20;12.57;;;9.90;91.40;;;;;;5040808;28;20482;-61
2023/04/19 10:45:45;;;;;;;20.80;13.63;;;10.00;92.00;;;;;;5022517;28;20461;-59
2023/04/19 10:48:29;;;;;;;17.87;12.23;;;10.20;92.50;;;;;;5037975;28;20448;-61
2023/04/19 10:51:15;;;;;;;21.67;12.87;;;10.50;93.00;;;;;;5037484;28;20475;-62
2023/04/19 10:53:47;;;;;;;20.63;13.43;;;10.80;91.30;;;;;;5042043;28;20414;-61
2023/04/19 10:56:13;;;;;;;20.63;12.63;;;11.10;87.20;;;;;;5046382;28;20575;-61
2023/04/19 10:59:01;;;;;;;18.30;11.90;;;11.20;80.20;;;;;;5039849;28;20432;-62
2023/04/19 11:01:44;;;;;;;18.07;11.30;;;11.20;76.40;;;;;;5038851;28;20461;-61
2023/04/19 11:04:22;;;;;;;20.13;12.27;;;11.20;75.10;;;;;;5036614;28;20427;-61
2023/04/19 11:06:51;;;;;;;17.23;10.93;;;11.20;73.40;;;;;;5043617;28;20432;-61
2023/04/19 11:09:46;;;;;;;20.20;10.83;;;11.20;74.50;;;;;;5041348;28;20463;-60
2023/04/19 11:12:17;;;;;;;19.30;11.70;;;11.20;74.70;;;;;;5021467;28;20560;-61
2023/04/19 11:14:46;;;;;;;19.10;11.87;;;11.20;74.80;;;;;;5043317;28;20433;-62
2023/04/19 11:17:15;;;;;;;21.37;11.73;;;11.30;73.70;;;;;;5042048;28;20442;-62
2023/04/19 11:20:01;;;;;;;17.47;10.93;;;11.30;72.60;;;;;;5036332;28;20448;-62
2023/04/19 11:22:35;;;;;;;20.53;10.40;;;11.30;72.90;;;;;;5040362;28;20457;-62
2023/04/19 11:25:21;;;;;;;15.87;10.60;;;11.30;72.30;;;;;;5040718;28;20955;-62
2023/04/19 11:27:49;;;;;;;17.47;10.27;;;11.30;71.80;;;;;;5033507;28;20514;-61
2023/04/19 11:30:18;;;;;;;13.20;9.43;;;11.20;72.00;;;;;;5034063;28;20520;-61
2023/04/19 11:32:50;;;;;;;16.70;9.60;;;11.20;72.50;;;;;;5043291;28;20862;-61
2023/04/19 11:35:27;;;;;;;16.73;9.10;;;11.20;72.70;;;;;;5036358;28;20954;-62
2023/04/19 11:37:53;;;;;;;11.47;8.23;;;11.10;71.60;;;;;;5019400;28;20452;-61
2023/04/19 11:40:21;;;;;;;12.37;8.10;;;11.10;71.30;;;;;;5040656;28;20445;-62
2023/04/19 11:42:56;;;;;;;14.20;9.10;;;11.10;71.10;;;;;;5033074;28;20433;-61
2023/04/19 11:45:30;;;;;;;14.10;9.30;;;11.00;70.80;;;;;;5037264;28;21316;-65
2023/04/19 11:47:56;;;;;;;12.23;8.10;;;11.10;70.90;;;;;;5034825;28;20814;-61
2023/04/19 11:50:56;;;;;;;13.07;7.70;;;11.10;71.10;;;;;;5020806;28;21044;-57
2023/04/19 11:53:23;;;;;;;10.53;7.30;;;11.10;70.80;;;;;;5030558;28;20651;-62
2023/04/19 11:55:50;;;;;;;11.97;7.33;;;11.10;70.50;;;;;;5039252;28;20438;-59
2023/04/19 11:58:30;;;;;;;12.20;7.97;;;11.10;70.00;;;;;;5035636;28;20430;-60
2023/04/19 12:01:02;;;;;;;14.03;8.37;;;11.20;69.90;;;;;;5040665;28;20460;-62
2023/04/19 12:03:28;;;;;;;11.20;7.50;;;11.20;69.50;;;;;;5032663;28;20430;-55
2023/04/19 12:05:56;;;;;;;9.87;7.73;;;11.30;69.40;;;;;;5032486;28;20429;-58
2023/04/19 12:08:40;;;;;;;8.67;7.07;;;11.30;69.30;;;;;;5026191;28;20225;-59
2023/04/19 12:11:06;;;;;;;9.07;7.17;;;11.40;69.40;;;;;;5038098;28;20549;-58
2023/04/19 12:13:33;;;;;;;9.10;6.10;;;11.40;69.00;;;;;;5037351;28;20868;-61
2023/04/19 12:15:59;;;;;;;7.13;5.50;;;11.50;68.50;;;;;;5035796;28;20261;-59
2023/04/19 12:18:25;;;;;;;9.27;5.93;;;11.50;67.90;;;;;;5037627;28;20500;-59
2023/04/19 12:20:52;;;;;;;7.97;6.00;;;11.50;67.90;;;;;;5038898;28;21188;-59
2023/04/19 12:23:18;;;;;;;6.57;5.60;;;11.50;67.90;;;;;;5038348;28;20437;-59
2023/04/19 12:25:46;;;;;;;7.47;5.53;;;11.50;67.60;;;;;;5044072;28;20440;-59
2023/04/19 12:28:12;;;;;;;7.13;5.60;;;11.50;67.10;;;;;;5038911;28;20434;-59
2023/04/19 12:30:39;;;;;;;8.20;6.20;;;11.50;67.40;;;;;;5036773;28;20465;-59
2023/04/19 12:33:08;;;;;;;9.93;6.17;;;11.60;67.20;;;;;;5037880;28;20465;-59
2023/04/19 12:35:34;;;;;;;8.20;6.13;;;11.60;66.40;;;;;;5032621;28;20410;-59
2023/04/19 12:38:01;;;;;;;8.63;6.67;;;11.70;66.30;;;;;;5032590;28;21756;-59